createdAt,value
2023-01-17T00:00:03.065Z,0
2023-01-17T00:15:02.365Z,0
2023-01-17T00:30:02.974Z,0
2023-01-17T00:45:02.245Z,0
2023-01-17T01:00:02.682Z,0
2023-01-17T01:15:03.131Z,0
2023-01-17T01:30:02.543Z,0
2023-01-17T01:45:03.087Z,0
2023-01-17T02:00:02.448Z,0
2023-01-17T02:15:03.072Z,0
2023-01-17T02:30:02.327Z,0
2023-01-17T02:45:02.756Z,0
2023-01-17T03:00:03.175Z,0
2023-01-17T03:15:02.606Z,0
2023-01-17T03:30:03.109Z,0
2023-01-17T03:45:02.478Z,0
2023-01-17T04:00:03.108Z,0
2023-01-17T04:15:02.329Z,0
2023-01-17T04:30:02.774Z,0
2023-01-17T04:45:03.219Z,0
2023-01-17T05:00:02.630Z,0
2023-01-17T05:15:03.150Z,0
2023-01-17T05:30:02.507Z,0
2023-01-17T05:45:03.119Z,0
2023-01-17T06:00:02.376Z,0
2023-01-17T06:15:02.835Z,0
2023-01-17T06:30:02.252Z,0
2023-01-17T06:45:02.699Z,0
2023-01-17T07:00:03.159Z,0
2023-01-17T07:15:02.555Z,0
2023-01-17T07:30:03.168Z,0
2023-01-17T07:45:02.411Z,2
2023-01-17T08:00:02.878Z,11
2023-01-17T08:15:02.304Z,27
2023-01-17T08:30:02.740Z,30
2023-01-17T08:45:03.192Z,66
2023-01-17T09:00:02.656Z,107
2023-01-17T09:15:03.193Z,78
2023-01-17T09:30:02.497Z,88
2023-01-17T09:45:03.146Z,59
2023-01-17T10:00:03.762Z,180
2023-01-17T10:15:02.820Z,207
2023-01-17T10:30:02.245Z,87
2023-01-17T10:45:02.675Z,177
2023-01-17T11:00:03.242Z,258
2023-01-17T11:15:02.559Z,163
2023-01-17T11:30:03.221Z,175
2023-01-17T11:45:02.489Z,109
2023-01-17T12:00:02.869Z,70
2023-01-17T12:15:02.332Z,160
2023-01-17T12:30:02.737Z,166
2023-01-17T12:45:03.237Z,141
2023-01-17T13:00:02.622Z,104
2023-01-17T13:15:03.261Z,98
2023-01-17T13:30:02.518Z,84
2023-01-17T13:45:02.915Z,164
2023-01-17T14:00:02.358Z,64
2023-01-17T14:15:02.784Z,33
2023-01-17T14:30:02.290Z,30
2023-01-17T14:45:02.675Z,66
2023-01-17T15:00:03.312Z,15
2023-01-17T15:15:02.520Z,8
2023-01-17T15:30:03.115Z,2
2023-01-17T15:45:02.399Z,0
2023-01-17T16:00:02.831Z,0
2023-01-17T16:15:12.547Z,0
2023-01-17T16:30:02.714Z,0
2023-01-17T16:45:03.309Z,0
2023-01-17T17:00:02.603Z,0
2023-01-17T17:15:03.051Z,0
2023-01-17T17:30:02.493Z,0
2023-01-17T17:45:02.984Z,0
2023-01-17T18:00:02.364Z,0
2023-01-17T18:15:02.795Z,0
2023-01-17T18:30:02.361Z,0
2023-01-17T18:45:02.674Z,0
2023-01-17T19:00:03.348Z,0
2023-01-17T19:15:02.536Z,0
2023-01-17T19:30:02.975Z,0
2023-01-17T19:45:02.416Z,0
2023-01-17T20:00:02.837Z,0
2023-01-17T20:15:02.363Z,0
2023-01-17T20:30:14.845Z,0
2023-01-17T20:45:03.380Z,0
2023-01-17T21:00:02.591Z,0
2023-01-17T21:15:03.051Z,0
2023-01-17T21:30:02.465Z,0
2023-01-17T21:45:02.961Z,0
2023-01-17T22:00:02.376Z,0
2023-01-17T22:15:02.800Z,0
2023-01-17T22:30:02.365Z,0
2023-01-17T22:45:02.659Z,0
2023-01-17T23:00:03.095Z,0
2023-01-17T23:15:02.522Z,0
2023-01-17T23:30:02.956Z,0
2023-01-17T23:45:02.414Z,0
